createdAt,value
2023-02-23T00:00:45.464Z,5.50
2023-02-23T00:03:14.557Z,5.50
2023-02-23T00:05:44.477Z,5.50
2023-02-23T00:08:16.169Z,5.47
2023-02-23T00:10:45.713Z,5.47
2023-02-23T00:13:14.905Z,5.43
2023-02-23T00:15:44.261Z,5.45
2023-02-23T00:18:12.948Z,5.43
2023-02-23T00:20:48.488Z,5.42
2023-02-23T00:23:17.637Z,5.40
2023-02-23T00:25:47.849Z,5.39
2023-02-23T00:28:16.578Z,5.41
2023-02-23T00:30:46.712Z,5.36
2023-02-23T00:33:16.797Z,5.35
2023-02-23T00:35:43.506Z,5.37
2023-02-23T00:38:10.233Z,5.41
2023-02-23T00:40:43.126Z,5.41
2023-02-23T00:43:09.905Z,5.42
2023-02-23T00:45:43.678Z,5.46
2023-02-23T00:48:16.404Z,5.47
2023-02-23T00:50:46.030Z,5.48
2023-02-23T00:53:15.313Z,5.49
2023-02-23T00:55:44.893Z,5.50
2023-02-23T00:58:15.987Z,5.48
2023-02-23T01:00:53.467Z,5.49
2023-02-23T01:03:20.539Z,5.53
2023-02-23T01:05:52.039Z,5.52
2023-02-23T01:08:19.027Z,5.54
2023-02-23T01:10:52.684Z,5.55
2023-02-23T01:13:24.807Z,5.56
2023-02-23T01:15:54.404Z,5.57
2023-02-23T01:18:24.511Z,5.59
2023-02-23T01:20:53.861Z,5.59
2023-02-23T01:23:21.771Z,5.59
2023-02-23T01:26:00.519Z,5.60
2023-02-23T01:28:30.735Z,5.57
2023-02-23T01:30:57.641Z,5.57
2023-02-23T01:33:25.783Z,5.57
2023-02-23T01:36:00.873Z,5.56
2023-02-23T01:38:37.056Z,5.60
2023-02-23T01:41:13.275Z,5.63
2023-02-23T01:44:12.299Z,5.67
2023-02-23T01:46:49.354Z,5.66
2023-02-23T01:49:37.226Z,5.62
2023-02-23T01:52:19.327Z,5.60
2023-02-23T01:54:58.574Z,5.62
2023-02-23T01:57:27.192Z,5.59
2023-02-23T01:59:55.748Z,5.62
2023-02-23T02:02:33.518Z,5.59
2023-02-23T02:05:11.357Z,5.60
2023-02-23T02:07:42.212Z,5.59
2023-02-23T02:10:15.160Z,5.57
2023-02-23T02:12:59.660Z,5.59
2023-02-23T02:15:53.726Z,5.58
2023-02-23T02:18:55.399Z,5.57
2023-02-23T02:21:48.647Z,5.56
2023-02-23T02:25:12.657Z,5.56
2023-02-23T02:28:32.879Z,5.53
2023-02-23T02:31:45.108Z,5.56
2023-02-23T02:34:48.544Z,5.57
2023-02-23T02:38:18.598Z,5.55
2023-02-23T02:41:18.708Z,5.53
2023-02-23T02:44:45.644Z,5.53
2023-02-23T02:47:34.284Z,5.51
2023-02-23T02:50:46.320Z,5.52
2023-02-23T02:54:04.167Z,5.51
2023-02-23T02:56:33.482Z,5.49
2023-02-23T02:59:03.583Z,5.51
2023-02-23T03:01:49.705Z,5.50
2023-02-23T03:04:54.023Z,5.52
2023-02-23T03:07:54.979Z,5.55
2023-02-23T03:11:14.663Z,5.52
2023-02-23T03:14:48.587Z,5.53
2023-02-23T03:18:04.725Z,5.49
2023-02-23T03:20:52.717Z,5.45
2023-02-23T03:24:12.205Z,5.45
2023-02-23T03:27:33.719Z,5.43
2023-02-23T03:31:04.788Z,5.39
2023-02-23T03:34:31.668Z,5.40
2023-02-23T03:37:44.787Z,5.40
2023-02-23T03:40:44.253Z,5.41
2023-02-23T03:43:43.772Z,5.41
2023-02-23T03:46:37.772Z,5.42
2023-02-23T03:49:32.697Z,5.42
2023-02-23T03:52:52.036Z,5.41
2023-02-23T03:55:51.123Z,5.44
2023-02-23T03:58:50.425Z,5.45
2023-02-23T04:01:48.863Z,5.49
2023-02-23T04:04:34.240Z,5.50
2023-02-23T04:07:28.604Z,5.52
2023-02-23T04:10:13.989Z,5.51
2023-02-23T04:13:16.666Z,5.52
2023-02-23T04:16:13.653Z,5.52
2023-02-23T04:18:44.440Z,5.53
2023-02-23T04:21:20.105Z,5.54
2023-02-23T04:23:47.890Z,5.54
2023-02-23T04:26:14.618Z,5.56
2023-02-23T04:28:47.482Z,5.54
2023-02-23T04:31:14.438Z,5.58
2023-02-23T04:33:44.777Z,5.57
2023-02-23T04:36:15.050Z,5.57
2023-02-23T04:38:47.834Z,5.59
2023-02-23T04:41:14.773Z,5.62
2023-02-23T04:43:44.584Z,5.60
2023-02-23T04:46:11.382Z,5.62
2023-02-23T04:48:45.484Z,5.66
2023-02-23T04:51:14.360Z,5.67
2023-02-23T04:53:44.167Z,5.67
2023-02-23T04:56:31.778Z,5.68
2023-02-23T04:58:58.496Z,5.68
2023-02-23T05:01:27.948Z,5.71
2023-02-23T05:03:55.740Z,5.71
2023-02-23T05:06:22.438Z,5.73
2023-02-23T05:08:49.411Z,5.75
2023-02-23T05:11:16.254Z,5.75
2023-02-23T05:13:43.243Z,5.76
2023-02-23T05:16:14.866Z,5.76
2023-02-23T05:18:49.683Z,5.78
2023-02-23T05:21:21.890Z,5.79
2023-02-23T05:23:51.387Z,5.81
2023-02-23T05:26:18.786Z,5.81
2023-02-23T05:28:47.339Z,5.81
2023-02-23T05:31:24.510Z,5.84
2023-02-23T05:33:54.283Z,5.84
2023-02-23T05:36:22.203Z,5.83
2023-02-23T05:38:49.422Z,5.87
2023-02-23T05:41:23.728Z,5.86
2023-02-23T05:43:52.558Z,5.87
2023-02-23T05:46:30.601Z,5.87
2023-02-23T05:49:02.621Z,5.88
2023-02-23T05:51:35.749Z,5.87
2023-02-23T05:54:05.559Z,5.88
2023-02-23T05:56:34.937Z,5.87
2023-02-23T05:59:04.442Z,5.86
2023-02-23T06:01:34.207Z,5.86
2023-02-23T06:04:01.035Z,5.85
2023-02-23T06:06:50.692Z,5.84
2023-02-23T06:09:17.627Z,5.86
2023-02-23T06:11:47.430Z,5.85
2023-02-23T06:14:18.578Z,5.83
2023-02-23T06:16:45.566Z,5.82
2023-02-23T06:19:12.393Z,5.83
2023-02-23T06:21:47.770Z,5.82
2023-02-23T06:24:16.588Z,5.83
2023-02-23T06:26:44.524Z,5.84
2023-02-23T06:29:12.203Z,5.81
2023-02-23T06:32:02.617Z,5.83
2023-02-23T06:34:36.772Z,5.84
2023-02-23T06:37:04.018Z,5.84
2023-02-23T06:39:31.036Z,5.84
2023-02-23T06:42:00.394Z,5.84
2023-02-23T06:44:29.716Z,5.84
2023-02-23T06:46:58.834Z,5.87
2023-02-23T06:49:25.572Z,5.85
2023-02-23T06:51:52.211Z,5.84
2023-02-23T06:54:19.473Z,5.86
2023-02-23T06:56:50.060Z,5.85
2023-02-23T06:59:19.918Z,5.88
2023-02-23T07:01:51.098Z,5.88
2023-02-23T07:04:23.533Z,5.90
2023-02-23T07:06:50.460Z,5.91
2023-02-23T07:09:24.121Z,5.91
2023-02-23T07:11:54.528Z,5.95
2023-02-23T07:14:26.491Z,5.97
2023-02-23T07:16:54.532Z,6.01
2023-02-23T07:19:21.449Z,5.98
2023-02-23T07:21:48.345Z,6.00
2023-02-23T07:24:15.337Z,6.00
2023-02-23T07:26:49.359Z,6.02
2023-02-23T07:29:18.782Z,6.03
2023-02-23T07:31:50.107Z,6.04
2023-02-23T07:34:20.115Z,6.08
2023-02-23T07:36:49.757Z,6.08
2023-02-23T07:39:18.562Z,6.12
2023-02-23T07:41:49.428Z,6.14
2023-02-23T07:44:21.174Z,6.16
2023-02-23T07:46:47.967Z,6.17
2023-02-23T07:49:14.709Z,6.19
2023-02-23T07:51:47.830Z,6.24
2023-02-23T07:54:15.636Z,6.28
2023-02-23T07:56:48.834Z,6.32
2023-02-23T07:59:21.807Z,6.34
2023-02-23T08:01:57.425Z,6.33
2023-02-23T08:04:24.401Z,6.35
2023-02-23T08:06:51.251Z,6.37
2023-02-23T08:09:32.235Z,6.33
2023-02-23T08:11:58.878Z,6.34
2023-02-23T08:14:25.589Z,6.37
2023-02-23T08:16:52.309Z,6.37
2023-02-23T08:19:25.065Z,6.39
2023-02-23T08:21:52.546Z,6.41
2023-02-23T08:24:23.013Z,6.43
2023-02-23T08:26:50.339Z,6.43
2023-02-23T08:29:19.498Z,6.43
2023-02-23T08:31:46.431Z,6.47
2023-02-23T08:34:16.411Z,6.52
2023-02-23T08:36:45.790Z,6.52
2023-02-23T08:39:13.856Z,6.57
2023-02-23T08:41:47.445Z,6.59
2023-02-23T08:44:16.532Z,6.62
2023-02-23T08:46:46.062Z,6.69
2023-02-23T08:49:12.816Z,6.77
2023-02-23T08:51:51.898Z,6.85
2023-02-23T08:54:22.054Z,6.90
2023-02-23T08:56:48.790Z,6.95
2023-02-23T08:59:15.714Z,7.04
2023-02-23T09:01:48.111Z,7.07
2023-02-23T09:04:14.798Z,7.12
2023-02-23T09:06:50.186Z,7.12
2023-02-23T09:09:22.561Z,7.05
2023-02-23T09:11:49.427Z,6.98
2023-02-23T09:14:18.248Z,6.92
2023-02-23T09:16:48.494Z,6.88
2023-02-23T09:19:18.555Z,6.83
2023-02-23T09:21:48.285Z,6.82
2023-02-23T09:24:15.098Z,6.80
2023-02-23T09:26:45.958Z,6.79
2023-02-23T09:29:28.037Z,6.66
2023-02-23T09:31:58.157Z,6.65
2023-02-23T09:34:30.713Z,6.66
2023-02-23T09:37:04.545Z,6.74
2023-02-23T09:39:38.430Z,6.71
2023-02-23T09:42:35.666Z,6.69
2023-02-23T09:45:33.726Z,6.65
2023-02-23T09:48:19.445Z,6.61
2023-02-23T09:51:06.256Z,6.61
2023-02-23T10:20:37.507Z,6.92
2023-02-23T10:23:15.504Z,7.03
2023-02-23T10:25:55.883Z,7.19
2023-02-23T10:28:30.914Z,7.21
2023-02-23T10:30:58.321Z,7.06
2023-02-23T10:33:44.740Z,7.01
2023-02-23T10:36:35.587Z,6.97
2023-02-23T10:39:08.157Z,6.95
2023-02-23T10:41:48.399Z,7.00
2023-02-23T10:44:28.589Z,7.27
2023-02-23T10:47:13.013Z,7.34
2023-02-23T10:49:55.941Z,7.74
2023-02-23T10:52:51.129Z,7.93
2023-02-23T10:55:28.901Z,7.83
2023-02-23T10:58:17.761Z,7.69
2023-02-23T11:01:10.739Z,7.69
2023-02-23T11:04:05.683Z,7.54
2023-02-23T11:06:44.494Z,7.48
2023-02-23T11:09:43.880Z,7.67
2023-02-23T11:12:28.499Z,7.86
2023-02-23T11:15:01.618Z,7.81
2023-02-23T11:17:42.509Z,7.78
2023-02-23T11:20:21.044Z,7.91
2023-02-23T11:22:50.750Z,8.00
2023-02-23T11:25:31.681Z,8.03
2023-02-23T11:28:00.294Z,8.12
2023-02-23T11:33:36.162Z,7.68
2023-02-23T11:36:35.215Z,7.63
2023-02-23T11:39:19.721Z,7.66
2023-02-23T11:42:34.187Z,7.64
2023-02-23T11:45:20.918Z,7.72
2023-02-23T11:47:54.259Z,7.67
2023-02-23T11:50:33.414Z,7.63
2023-02-23T11:53:19.457Z,7.57
2023-02-23T11:56:12.600Z,7.53
2023-02-23T11:58:54.520Z,7.55
2023-02-23T12:02:22.461Z,7.59
2023-02-23T12:05:05.046Z,7.54
2023-02-23T12:07:59.909Z,7.41
2023-02-23T12:11:08.384Z,7.39
2023-02-23T12:14:47.079Z,7.40
2023-02-23T12:17:53.920Z,7.30
2023-02-23T12:20:32.489Z,7.37
2023-02-23T12:23:22.054Z,7.35
2023-02-23T12:26:17.560Z,7.44
2023-02-23T12:29:13.024Z,7.52
2023-02-23T12:32:12.843Z,7.48
2023-02-23T12:35:21.177Z,7.51
2023-02-23T12:38:27.761Z,7.58
2023-02-23T12:41:11.729Z,7.60
2023-02-23T12:43:51.481Z,7.60
2023-02-23T12:46:47.544Z,7.62
2023-02-23T12:50:07.259Z,7.66
2023-02-23T12:52:53.772Z,7.91
2023-02-23T12:56:38.995Z,7.96
2023-02-23T13:00:26.725Z,8.14
2023-02-23T13:03:44.962Z,8.21
2023-02-23T13:07:18.034Z,8.22
2023-02-23T13:10:22.245Z,7.93
2023-02-23T13:12:59.018Z,7.95
2023-02-23T13:16:00.307Z,7.85
2023-02-23T13:19:29.616Z,7.78
2023-02-23T13:22:37.414Z,7.77
2023-02-23T13:25:55.570Z,7.86
2023-02-23T13:29:06.551Z,7.89
2023-02-23T13:31:52.696Z,8.00
2023-02-23T13:34:34.921Z,8.04
2023-02-23T13:40:55.079Z,7.74
2023-02-23T13:43:54.565Z,7.68
2023-02-23T13:46:51.067Z,7.66
2023-02-23T13:49:58.201Z,7.69
2023-02-23T13:53:09.889Z,7.75
2023-02-23T13:55:54.901Z,7.69
2023-02-23T13:58:34.688Z,7.67
2023-02-23T14:01:32.170Z,7.53
2023-02-23T14:04:18.553Z,7.52
2023-02-23T14:07:34.249Z,7.47
2023-02-23T14:10:19.811Z,7.43
2023-02-23T14:13:43.611Z,7.46
2023-02-23T14:16:34.809Z,7.43
2023-02-23T14:19:36.674Z,7.42
2023-02-23T14:22:32.308Z,7.52
2023-02-23T14:25:36.647Z,7.60
2023-02-23T14:28:39.068Z,7.64
2023-02-23T14:31:15.960Z,7.56
2023-02-23T14:33:42.718Z,7.56
2023-02-23T14:36:21.855Z,7.57
2023-02-23T14:39:00.501Z,7.58
2023-02-23T14:42:19.784Z,7.51
2023-02-23T14:44:51.679Z,7.41
2023-02-23T14:47:32.586Z,7.42
2023-02-23T14:50:11.236Z,7.34
2023-02-23T14:52:43.986Z,7.30
2023-02-23T14:55:45.724Z,7.26
2023-02-23T14:58:36.740Z,7.21
2023-02-23T15:04:22.684Z,7.23
2023-02-23T15:07:01.697Z,7.22
2023-02-23T15:09:46.024Z,7.22
2023-02-23T15:12:38.826Z,7.21
2023-02-23T15:15:22.448Z,7.20
2023-02-23T15:17:55.102Z,7.19
2023-02-23T15:23:12.485Z,7.17
2023-02-23T15:25:47.940Z,7.12
2023-02-23T15:28:32.998Z,7.12
2023-02-23T15:31:09.459Z,7.07
2023-02-23T15:33:37.383Z,7.01
2023-02-23T15:36:44.040Z,7.04
2023-02-23T15:39:21.802Z,7.02
2023-02-23T15:41:50.564Z,7.00
2023-02-23T15:44:43.670Z,6.99
2023-02-23T15:47:28.354Z,6.98
2023-02-23T15:50:37.293Z,6.96
2023-02-23T15:53:43.718Z,7.06
2023-02-23T15:56:28.214Z,7.04
2023-02-23T15:59:13.372Z,6.97
2023-02-23T16:02:03.589Z,6.84
2023-02-23T16:04:47.032Z,6.84
2023-02-23T16:07:18.388Z,6.68
2023-02-23T16:10:23.131Z,6.41
2023-02-23T16:12:54.092Z,6.24
2023-02-23T16:15:35.952Z,6.14
2023-02-23T16:18:24.272Z,6.05
2023-02-23T16:21:01.849Z,5.93
2023-02-23T16:23:51.044Z,5.99
2023-02-23T16:26:33.793Z,5.90
2023-02-23T16:29:12.554Z,5.87
2023-02-23T16:31:58.056Z,5.78
2023-02-23T16:35:22.500Z,5.70
2023-02-23T16:38:03.686Z,5.62
2023-02-23T16:40:32.892Z,5.61
2023-02-23T16:42:59.713Z,5.51
2023-02-23T16:45:32.184Z,5.45
2023-02-23T16:48:03.399Z,5.43
2023-02-23T16:50:43.194Z,5.32
2023-02-23T16:53:16.833Z,5.31
2023-02-23T16:55:53.845Z,5.35
2023-02-23T16:58:36.061Z,5.32
2023-02-23T17:01:03.220Z,5.09
2023-02-23T17:06:16.561Z,4.93
2023-02-23T17:08:56.183Z,4.79
2023-02-23T17:11:24.812Z,4.88
2023-02-23T17:13:51.825Z,4.65
2023-02-23T17:16:19.607Z,4.46
2023-02-23T17:18:46.585Z,4.29
2023-02-23T17:21:25.303Z,4.17
2023-02-23T17:23:53.705Z,4.01
2023-02-23T17:26:25.949Z,4.08
2023-02-23T17:28:53.894Z,4.06
2023-02-23T17:31:23.430Z,3.85
2023-02-23T17:33:51.824Z,3.68
2023-02-23T17:36:18.747Z,3.59
2023-02-23T17:38:46.061Z,3.57
2023-02-23T17:41:19.190Z,3.49
2023-02-23T17:43:53.478Z,3.32
2023-02-23T17:46:23.085Z,3.30
2023-02-23T17:48:55.172Z,3.22
2023-02-23T17:51:23.451Z,3.11
2023-02-23T17:53:53.435Z,2.96
2023-02-23T17:56:21.847Z,2.86
2023-02-23T17:58:57.829Z,2.75
2023-02-23T18:01:36.136Z,2.71
2023-02-23T18:04:03.989Z,2.71
2023-02-23T18:06:30.998Z,2.71
2023-02-23T18:08:58.125Z,2.60
2023-02-23T18:11:28.183Z,2.52
2023-02-23T18:14:03.936Z,2.41
2023-02-23T18:16:36.105Z,2.31
2023-02-23T18:19:02.910Z,2.30
2023-02-23T18:21:30.392Z,2.23
2023-02-23T18:23:57.105Z,2.18
2023-02-23T18:26:29.480Z,2.12
2023-02-23T18:28:59.104Z,2.03
2023-02-23T18:31:28.430Z,2.06
2023-02-23T18:34:00.293Z,2.05
2023-02-23T18:36:36.124Z,1.99
2023-02-23T18:39:07.677Z,1.96
2023-02-23T18:41:43.363Z,1.93
2023-02-23T18:44:19.022Z,1.83
2023-02-23T18:46:46.597Z,1.83
2023-02-23T18:49:21.649Z,1.99
2023-02-23T18:52:09.165Z,1.90
2023-02-23T18:54:43.203Z,1.82
2023-02-23T18:57:12.707Z,1.73
2023-02-23T21:24:52.527Z,2.69
2023-02-23T21:52:16.470Z,2.73
2023-02-23T22:22:48.869Z,2.86
2023-02-23T22:25:17.125Z,2.89
2023-02-23T22:27:48.156Z,2.91
2023-02-23T22:30:24.475Z,2.84
2023-02-23T22:32:51.581Z,2.89
2023-02-23T22:35:18.606Z,2.80
2023-02-23T22:37:48.316Z,2.76
2023-02-23T22:40:21.078Z,2.85
2023-02-23T22:42:52.313Z,2.83
2023-02-23T22:45:19.111Z,2.77
2023-02-23T22:48:01.454Z,2.79
2023-02-23T22:50:28.737Z,2.76
2023-02-23T22:52:55.402Z,2.79
2023-02-23T22:55:30.554Z,2.87
2023-02-23T22:57:59.845Z,2.86
2023-02-23T23:00:27.891Z,2.77
2023-02-23T23:02:55.411Z,2.71
2023-02-23T23:05:31.356Z,2.70
2023-02-23T23:07:59.066Z,2.69
2023-02-23T23:10:28.937Z,2.73
2023-02-23T23:12:57.063Z,2.70
2023-02-23T23:15:24.431Z,2.69
2023-02-23T23:17:52.790Z,2.69
2023-02-23T23:20:29.059Z,2.71
2023-02-23T23:22:57.306Z,2.69
2023-02-23T23:25:29.090Z,2.69
2023-02-23T23:27:55.863Z,2.70
2023-02-23T23:30:29.101Z,2.69
2023-02-23T23:32:57.944Z,2.68
2023-02-23T23:35:28.978Z,2.65
2023-02-23T23:38:00.265Z,2.70
2023-02-23T23:40:30.170Z,2.69
2023-02-23T23:42:56.847Z,2.68
2023-02-23T23:45:24.388Z,2.68
2023-02-23T23:47:51.318Z,2.68
2023-02-23T23:50:18.084Z,2.70
2023-02-23T23:52:47.429Z,2.71
2023-02-23T23:57:56.193Z,2.69
